HomeShort term forecast

Short term forecast

Graphical weather forecast for the next 48 hours for Montreal:
Short term forecast
This weather forecast is automatically refreshed every 3 hours.

Hourly Experimental Forecast for the next 48 hours

Overall summary: Clear throughout the day.

 Date & Hour   Temp   Feel   Baro   Hum   Speed & Bearing   Precipitation   Visibility   Cloud cover   Conditions 
 21/04/2018 - 12:00  8.2°C  5.9°C  1027.4 hPa  41%  13.5 km/h   --  16.1km  13%  Clear 
 21/04/2018 - 13:00  8.4°C  5.9°C  1027.3 hPa  44%  15.8 km/h   --  16.1km  18%  Clear 
 21/04/2018 - 14:00  8.7°C  6.0°C  1027.0 hPa  47%  17.3 km/h   --  16.1km  21%  Clear 
 21/04/2018 - 15:00  8.9°C  6.3°C  1026.9 hPa  49%  17.7 km/h   --  16.1km  23%  Clear 
 21/04/2018 - 16:00  9.3°C  6.8°C  1026.8 hPa  48%  17.7 km/h   0.01 mm/h  16.1km  24%  Clear 
 21/04/2018 - 17:00  9.3°C  6.8°C  1026.9 hPa  47%  17.2 km/h   0.01 mm/h  16.1km  23%  Clear 
 21/04/2018 - 18:00  8.7°C  6.3°C  1027.1 hPa  49%  15.2 km/h   --  16.1km  20%  Clear 
 21/04/2018 - 19:00  7.7°C  5.4°C  1027.1 hPa  53%  12.3 km/h   --  16.1km  16%  Clear 
 21/04/2018 - 20:00  6.4°C  4.4°C  1027.3 hPa  57%  9.9 km/h   0.03 mm/h  16.1km  14%  Clear 
 21/04/2018 - 21:00  5.3°C  3.2°C  1027.6 hPa  62%  9.4 km/h   0.01 mm/h  16.1km  16%  Clear 
 21/04/2018 - 22:00  4.3°C  2.0°C  1028.1 hPa  65%  9.5 km/h   0.01 mm/h  16.1km  21%  Clear 
 21/04/2018 - 23:00  3.3°C  0.8°C  1028.5 hPa  68%  9.5 km/h   --  16.1km  23%  Clear 
 22/04/2018 - 00:00  2.5°C  0.0°C  1028.7 hPa  71%  9.0 km/h   0.04 mm/h  16.1km  21%  Clear 
 22/04/2018 - 01:00  2.1°C  -0.5°C  1029.0 hPa  71%  8.9 km/h   --  16.1km  26%  Partly Cloudy 
 22/04/2018 - 02:00  1.6°C  -0.9°C  1029.3 hPa  73%  8.3 km/h   --  16.1km  20%  Clear 
 22/04/2018 - 03:00  1.1°C  -1.4°C  1029.5 hPa  74%  7.9 km/h   --  16.1km  13%  Clear 
 22/04/2018 - 04:00  0.7°C  -1.8°C  1029.6 hPa  75%  7.6 km/h   --  16.1km  6%  Clear 
 22/04/2018 - 05:00  0.5°C  -2.0°C  1029.8 hPa  76%  7.4 km/h   --  16.1km  0%  Clear 
 22/04/2018 - 06:00  0.6°C  -1.7°C  1030.2 hPa  75%  7.1 km/h   --  16.1km  0%  Clear 
 22/04/2018 - 07:00  1.2°C  -0.9°C  1030.8 hPa  71%  6.8 km/h   --  16.1km  0%  Clear 
 22/04/2018 - 08:00  2.3°C  0.4°C  1031.2 hPa  66%  6.8 km/h   0.01 mm/h  16.1km  0%  Clear 
 22/04/2018 - 09:00  3.9°C  2.1°C  1031.4 hPa  60%  7.1 km/h   --  16.1km  0%  Clear 
 22/04/2018 - 10:00  5.9°C  4.3°C  1031.4 hPa  53%  7.5 km/h   --  16.1km  0%  Clear 
 22/04/2018 - 11:00  7.5°C  6.1°C  1031.4 hPa  48%  8.0 km/h   --  16.1km  0%  Clear 
 22/04/2018 - 12:00  8.7°C  7.4°C  1031.2 hPa  44%  8.6 km/h   --  16.1km  0%  Clear 
 22/04/2018 - 13:00  9.7°C  8.4°C  1030.8 hPa  41%  9.4 km/h   --  16.1km  0%  Clear 
 22/04/2018 - 14:00  10.3°C  10.3°C  1030.4 hPa  39%  10.1 km/h   0.01 mm/h  16.1km  0%  Clear 
 22/04/2018 - 15:00  11.0°C  11.0°C  1030.1 hPa  38%  10.8 km/h   0.01 mm/h  16.1km  0%  Clear 
 22/04/2018 - 16:00  11.5°C  11.5°C  1029.7 hPa  37%  11.4 km/h   --  16.1km  0%  Clear 
 22/04/2018 - 17:00  11.7°C  11.7°C  1029.5 hPa  37%  11.3 km/h   --  16.1km  0%  Clear 
 22/04/2018 - 18:00  11.3°C  11.3°C  1029.6 hPa  40%  10.0 km/h   --  16.1km  0%  Clear 
 22/04/2018 - 19:00  10.3°C  10.3°C  1029.9 hPa  46%  7.9 km/h   --  16.1km  0%  Clear 
 22/04/2018 - 20:00  9.0°C  8.2°C  1030.2 hPa  52%  6.7 km/h   --  16.1km  0%  Clear 
 22/04/2018 - 21:00  7.7°C  6.8°C  1030.6 hPa  56%  5.8 km/h   --  16.1km  0%  Clear 
 22/04/2018 - 22:00  6.2°C  5.4°C  1030.9 hPa  60%  5.3 km/h   --  16.1km  0%  Clear 
 22/04/2018 - 23:00  5.0°C  4.0°C  1031.3 hPa  64%  5.1 km/h   --  16.1km  0%  Clear 
 23/04/2018 - 00:00  4.1°C  3.1°C  1031.4 hPa  67%  5.0 km/h   --  16.1km  1%  Clear 
 23/04/2018 - 01:00  3.5°C  2.3°C  1031.5 hPa  70%  5.1 km/h   --  16.1km  4%  Clear 
 23/04/2018 - 02:00  3.1°C  1.8°C  1031.6 hPa  71%  5.3 km/h   --  16.1km  8%  Clear 
 23/04/2018 - 03:00  2.6°C  1.3°C  1031.6 hPa  74%  5.2 km/h   --  16.1km  17%  Clear 
 23/04/2018 - 04:00  2.1°C  0.7°C  1031.8 hPa  76%  5.2 km/h   --  16.1km  27%  Partly Cloudy 
 23/04/2018 - 05:00  1.8°C  0.4°C  1032.0 hPa  78%  5.2 km/h   --  16.1km  35%  Partly Cloudy 
 23/04/2018 - 06:00  1.9°C  1.9°C  1032.4 hPa  79%  4.7 km/h   --  16.1km  37%  Partly Cloudy 
 23/04/2018 - 07:00  2.5°C  2.5°C  1032.9 hPa  77%  4.5 km/h   --  16.1km  35%  Partly Cloudy 
 23/04/2018 - 08:00  3.9°C  3.9°C  1033.2 hPa  72%  4.6 km/h   --  16.1km  31%  Partly Cloudy 
 23/04/2018 - 09:00  6.3°C  5.4°C  1033.2 hPa  65%  5.5 km/h   --  16.1km  25%  Partly Cloudy 
 23/04/2018 - 10:00  9.3°C  8.5°C  1032.9 hPa  56%  6.8 km/h   --  16.1km  15%  Clear 
 23/04/2018 - 11:00  11.8°C  11.8°C  1032.4 hPa  50%  8.1 km/h   --  16.1km  9%  Clear 
Test

 

Past weather and reports

Past weatherFind in this section the past weather conditions, weather archive, graphics, reports and statistics.

Current conditions

Current weather condition for MontrealAll you need to know about the current weather conditions for Montreal. Weather data is updated every 10 minutes.

Weather forecast

Current Montreal weatherSince 2004, celinium.com website has provided accurate weather forecast for Montreal's island.